createdAt,value
2022-09-29T00:02:13.540Z,80.56
2022-09-29T00:07:17.298Z,79.35
2022-09-29T00:12:21.083Z,80.17
2022-09-29T00:17:26.029Z,79.72
2022-09-29T00:22:29.602Z,80.61
2022-09-29T00:27:33.123Z,79.87
2022-09-29T00:32:37.920Z,80.54
2022-09-29T00:37:41.356Z,81.30
2022-09-29T00:42:44.794Z,84.10
2022-09-29T00:47:57.897Z,86.63
2022-09-29T00:53:04.322Z,87.88
2022-09-29T00:58:14.341Z,88.89
2022-09-29T01:03:22.866Z,89.29
2022-09-29T01:08:32.069Z,89.48
2022-09-29T01:13:36.426Z,89.64
2022-09-29T01:18:41.774Z,90.36
2022-09-29T01:24:10.148Z,90.82
2022-09-29T01:29:37.315Z,91.08
2022-09-29T01:34:51.338Z,91.43
2022-09-29T01:40:03.955Z,91.94
2022-09-29T01:45:17.340Z,92.22
2022-09-29T01:50:26.758Z,92.75
2022-09-29T01:55:34.428Z,92.69
2022-09-29T02:00:42.363Z,92.38
2022-09-29T02:05:50.808Z,92.33
2022-09-29T02:11:00.732Z,92.37
2022-09-29T02:16:21.166Z,92.09
2022-09-29T02:27:30.664Z,91.89
2022-09-29T02:32:36.466Z,91.95
2022-09-29T02:37:54.964Z,91.95
2022-09-29T02:43:16.931Z,91.74
2022-09-29T02:48:37.010Z,91.70
2022-09-29T02:53:55.874Z,91.75
2022-09-29T02:59:03.036Z,91.64
2022-09-29T03:04:08.484Z,91.66
2022-09-29T03:09:13.357Z,91.94
2022-09-29T03:14:17.547Z,92.17
2022-09-29T03:19:49.494Z,92.90
2022-09-29T03:24:54.768Z,93.38
2022-09-29T03:29:58.470Z,94.03
2022-09-29T03:35:02.241Z,94.71
2022-09-29T03:40:09.990Z,95.33
2022-09-29T03:45:15.045Z,95.39
2022-09-29T03:50:18.648Z,96.12
2022-09-29T03:55:23.647Z,96.67
2022-09-29T04:00:27.627Z,96.77
2022-09-29T04:05:31.904Z,97.17
2022-09-29T04:11:13.356Z,97.05
2022-09-29T04:16:18.596Z,96.58
2022-09-29T04:21:22.735Z,96.29
2022-09-29T04:26:27.050Z,95.92
2022-09-29T04:31:32.749Z,95.72
2022-09-29T04:36:45.992Z,95.47
2022-09-29T04:41:53.318Z,94.63
2022-09-29T04:46:58.327Z,93.55
2022-09-29T04:52:02.185Z,91.75
2022-09-29T04:57:05.885Z,90.76
2022-09-29T05:02:11.372Z,90.27
2022-09-29T05:07:41.867Z,89.01
2022-09-29T05:12:50.038Z,87.92
2022-09-29T05:17:54.931Z,85.62
2022-09-29T05:23:00.176Z,83.57
2022-09-29T05:28:03.915Z,81.09
2022-09-29T05:33:09.250Z,80.35
2022-09-29T05:38:13.201Z,79.68
2022-09-29T05:43:16.612Z,78.36
2022-09-29T05:48:21.795Z,77.10
2022-09-29T05:53:25.216Z,75.30
2022-09-29T05:58:28.698Z,74.96
2022-09-29T06:03:34.663Z,73.88
2022-09-29T06:08:38.342Z,73.96
2022-09-29T06:13:42.775Z,72.46
2022-09-29T06:18:48.381Z,71.08
2022-09-29T06:23:52.201Z,70.48
2022-09-29T06:28:56.989Z,70.62
2022-09-29T06:34:03.178Z,70.11
2022-09-29T06:39:08.038Z,70.23
2022-09-29T06:44:11.705Z,69.79
2022-09-29T06:49:16.880Z,68.63
2022-09-29T06:54:21.830Z,67.70
2022-09-29T06:59:25.269Z,66.95
2022-09-29T07:04:30.593Z,66.46
2022-09-29T07:09:33.979Z,64.14
2022-09-29T07:14:37.705Z,64.38
2022-09-29T07:19:42.498Z,64.65
2022-09-29T07:24:46.865Z,62.77
2022-09-29T07:30:02.334Z,61.84
2022-09-29T07:35:10.318Z,61.91
2022-09-29T07:40:14.292Z,61.56
2022-09-29T07:45:17.957Z,60.56
2022-09-29T07:50:22.890Z,60.81
2022-09-29T07:55:27.674Z,60.75
2022-09-29T08:00:32.268Z,58.96
2022-09-29T08:05:37.110Z,56.98
2022-09-29T08:10:49.758Z,57.81
2022-09-29T08:15:59.687Z,57.54
2022-09-29T08:21:06.161Z,58.21
2022-09-29T08:26:11.450Z,56.40
2022-09-29T08:31:20.516Z,54.68
2022-09-29T08:36:25.663Z,55.23
2022-09-29T08:41:44.304Z,54.50
2022-09-29T08:47:01.901Z,53.37
2022-09-29T08:52:17.569Z,53.59
2022-09-29T08:57:21.791Z,53.23
2022-09-29T09:02:54.416Z,52.83
2022-09-29T09:08:07.896Z,52.20
2022-09-29T09:13:27.491Z,51.68
2022-09-29T09:18:50.443Z,51.21
2022-09-29T09:24:00.675Z,50.42
2022-09-29T09:29:10.401Z,50.35
2022-09-29T09:34:21.027Z,49.66
2022-09-29T09:39:34.038Z,50.12
2022-09-29T09:44:44.007Z,49.30
2022-09-29T09:49:52.369Z,46.90
2022-09-29T09:55:00.949Z,46.58
2022-09-29T10:00:11.649Z,46.80
2022-09-29T10:05:20.590Z,46.97
2022-09-29T10:10:28.415Z,47.34
2022-09-29T10:15:37.559Z,46.94
2022-09-29T10:20:42.871Z,48.38
2022-09-29T10:25:53.696Z,48.42
2022-09-29T10:30:57.277Z,47.16
2022-09-29T10:36:11.202Z,45.84
2022-09-29T10:41:16.743Z,47.31
2022-09-29T10:46:38.538Z,48.64
2022-09-29T10:51:44.191Z,45.67
2022-09-29T10:56:50.654Z,48.22
2022-09-29T11:01:57.929Z,49.35
2022-09-29T11:07:08.681Z,49.21
2022-09-29T11:12:29.855Z,49.58
2022-09-29T11:17:39.968Z,48.00
2022-09-29T11:23:20.259Z,47.78
2022-09-29T11:28:49.720Z,47.59
2022-09-29T11:34:07.112Z,48.02
2022-09-29T11:39:24.729Z,47.71
2022-09-29T11:44:53.805Z,47.74
2022-09-29T11:50:10.689Z,47.71
2022-09-29T11:55:28.422Z,47.53
2022-09-29T12:00:52.283Z,47.32
2022-09-29T12:06:10.567Z,47.56
2022-09-29T12:11:44.343Z,46.78
2022-09-29T12:16:53.723Z,48.56
2022-09-29T12:22:00.866Z,49.42
2022-09-29T12:27:09.065Z,48.72
2022-09-29T12:32:19.517Z,55.15
2022-09-29T12:37:30.019Z,58.31
2022-09-29T12:42:47.727Z,59.83
2022-09-29T12:48:06.834Z,61.75
2022-09-29T12:53:17.601Z,64.02
2022-09-29T12:58:26.687Z,65.16
2022-09-29T13:03:56.401Z,68.32
2022-09-29T13:09:36.117Z,69.42
2022-09-29T13:15:14.442Z,70.60
2022-09-29T13:20:39.798Z,69.91
2022-09-29T13:25:55.144Z,69.45
2022-09-29T13:31:02.903Z,69.76
2022-09-29T13:36:09.199Z,67.66
2022-09-29T13:41:16.807Z,67.10
2022-09-29T13:46:38.942Z,66.93
2022-09-29T13:51:48.043Z,67.27
2022-09-29T13:57:00.167Z,67.43
2022-09-29T14:02:19.293Z,65.95
2022-09-29T14:07:46.178Z,65.31
2022-09-29T14:12:57.156Z,64.29
2022-09-29T14:18:05.455Z,63.60
2022-09-29T14:23:12.561Z,64.13
2022-09-29T14:28:20.936Z,64.89
2022-09-29T14:33:27.870Z,64.78
2022-09-29T14:38:35.171Z,65.11
2022-09-29T14:43:43.266Z,66.84
2022-09-29T14:49:19.836Z,67.98
2022-09-29T14:54:39.553Z,68.16
2022-09-29T14:59:55.159Z,68.67
2022-09-29T15:04:59.164Z,69.38
2022-09-29T15:10:04.942Z,70.10
2022-09-29T15:15:30.633Z,71.17
2022-09-29T15:20:35.627Z,71.76
2022-09-29T15:25:43.126Z,71.92
2022-09-29T15:30:50.074Z,72.58
2022-09-29T15:35:57.581Z,71.38
2022-09-29T15:41:05.684Z,72.13
2022-09-29T15:46:19.593Z,73.13
2022-09-29T15:51:23.023Z,73.65
2022-09-29T15:56:31.528Z,73.45
2022-09-29T16:01:35.658Z,72.05
2022-09-29T16:06:40.180Z,71.96
2022-09-29T16:11:45.044Z,72.21
2022-09-29T16:16:50.641Z,72.08
2022-09-29T16:21:56.402Z,72.05
2022-09-29T16:27:02.070Z,73.86
2022-09-29T16:32:42.521Z,76.43
2022-09-29T16:37:46.856Z,79.29
2022-09-29T16:42:54.533Z,80.52
2022-09-29T16:47:58.050Z,81.06
2022-09-29T16:53:01.909Z,81.16
2022-09-29T16:58:12.362Z,82.01
2022-09-29T17:03:15.751Z,82.49
2022-09-29T17:08:22.361Z,82.01
2022-09-29T17:13:32.494Z,81.53
2022-09-29T17:18:35.936Z,81.83
2022-09-29T17:23:39.681Z,81.96
2022-09-29T17:28:44.835Z,81.55
2022-09-29T17:33:48.241Z,80.68
2022-09-29T17:38:52.148Z,81.08
2022-09-29T17:43:57.174Z,80.33
2022-09-29T17:49:01.457Z,80.51
2022-09-29T17:54:05.315Z,80.05
2022-09-29T17:59:10.396Z,80.76
2022-09-29T18:04:13.904Z,81.18
2022-09-29T18:09:19.226Z,81.08
2022-09-29T18:14:24.327Z,80.92
2022-09-29T18:19:28.310Z,81.10
2022-09-29T18:24:32.342Z,80.76
2022-09-29T18:29:37.468Z,80.25
2022-09-29T18:34:40.912Z,79.40
2022-09-29T18:39:44.382Z,80.73
2022-09-29T18:44:51.403Z,80.53
2022-09-29T18:49:54.805Z,80.67
2022-09-29T18:54:58.275Z,81.87
2022-09-29T19:00:05.337Z,81.97
2022-09-29T19:05:10.903Z,81.47
2022-09-29T19:10:16.610Z,81.58
2022-09-29T19:15:23.362Z,81.90
2022-09-29T19:20:30.106Z,82.01
2022-09-29T19:25:36.084Z,81.99
2022-09-29T19:30:42.652Z,81.58
2022-09-29T19:35:48.502Z,80.53
2022-09-29T19:40:52.726Z,80.30
2022-09-29T19:45:57.957Z,79.95
2022-09-29T19:51:18.866Z,80.08
2022-09-29T19:56:22.298Z,80.41
2022-09-29T20:01:28.237Z,79.63
2022-09-29T20:06:31.709Z,80.34
2022-09-29T20:11:37.977Z,80.94
2022-09-29T20:16:45.460Z,80.50
2022-09-29T20:21:50.616Z,79.80
2022-09-29T20:26:58.055Z,79.96
2022-09-29T20:32:03.137Z,79.52
2022-09-29T20:37:06.636Z,79.62
2022-09-29T20:42:10.273Z,79.69
2022-09-29T20:47:15.081Z,79.43
2022-09-29T20:52:18.822Z,80.26
2022-09-29T20:57:22.446Z,80.21
2022-09-29T21:02:27.496Z,79.70
2022-09-29T21:07:38.275Z,79.50
2022-09-29T21:12:41.872Z,79.17
2022-09-29T21:17:46.702Z,79.47
2022-09-29T21:22:50.505Z,79.16
2022-09-29T21:27:53.940Z,79.43
2022-09-29T21:32:59.065Z,79.36
2022-09-29T21:38:02.727Z,79.69
2022-09-29T21:43:06.151Z,79.58
2022-09-29T21:48:11.832Z,79.34
2022-09-29T21:53:15.252Z,78.61
2022-09-29T21:58:18.738Z,78.80
2022-09-29T22:03:24.000Z,78.52
2022-09-29T22:08:27.755Z,78.48
2022-09-29T22:13:31.314Z,78.73
2022-09-29T22:18:41.690Z,78.92
2022-09-29T22:23:46.291Z,78.40
2022-09-29T22:28:50.003Z,78.73
2022-09-29T22:33:57.789Z,78.18
2022-09-29T22:39:01.978Z,78.06
2022-09-29T22:44:05.888Z,77.77
2022-09-29T22:49:10.947Z,78.23
2022-09-29T22:54:14.618Z,78.70
2022-09-29T22:59:18.588Z,78.74
2022-09-29T23:04:23.715Z,77.40
2022-09-29T23:09:27.172Z,77.04
2022-09-29T23:14:30.688Z,77.26
2022-09-29T23:19:35.548Z,78.55
2022-09-29T23:24:38.969Z,79.31
2022-09-29T23:29:42.579Z,78.96
2022-09-29T23:34:47.727Z,79.27
2022-09-29T23:39:51.538Z,80.70
2022-09-29T23:44:54.968Z,80.35
2022-09-29T23:49:59.810Z,79.98
2022-09-29T23:55:03.898Z,79.46
